Time;durP1;ratioP1;P1;durP2;ratioP2;P2;SDS_P1;SDS_P2;PMS_P1;PMS_P2;Temp;Humidity;BMP_temperature;BMP_pressure;BME280_temperature;BME280_humidity;BME280_pressure;Samples;Min_cycle;Max_cycle;Signal;HPM_P1;HPM_P2
2024/03/21 00:01:39;;;;;;;;;;;;;;;6.96;50.65;95037.13;4175957;28;19990;-69
2024/03/21 00:03:40;;;;;;;;;;;;;;;6.98;50.86;95038.66;4185210;28;19947;-70
2024/03/21 00:05:41;;;;;;;;;;;;;;;6.90;50.96;95035.84;4188593;28;19924;-71
2024/03/21 00:07:45;;;;;;;;;;;;;;;6.88;50.88;95026.53;4174881;28;19921;-70
2024/03/21 00:09:46;;;;;;;;;;;;;;;6.82;51.12;95030.47;4170119;28;19921;-72
2024/03/21 00:11:47;;;;;;;;;;;;;;;6.84;51.41;95025.97;4192240;28;19921;-70
2024/03/21 00:13:48;;;;;;;;;;;;;;;6.89;51.15;95017.78;4182128;28;19971;-68
2024/03/21 00:15:48;;;;;;;;;;;;;;;6.93;50.92;95029.59;4178879;28;20422;-71
2024/03/21 00:17:49;;;;;;;;;;;;;;;6.95;50.95;95023.28;4186258;28;20019;-70
2024/03/21 00:19:49;;;;;;;;;;;;;;;6.97;50.92;95017.97;4191651;28;20379;-71
2024/03/21 00:21:50;;;;;;;;;;;;;;;7.01;51.08;95015.91;4182832;28;19948;-72
2024/03/21 00:23:51;;;;;;;;;;;;;;;7.05;50.73;95022.50;4181323;28;19929;-70
2024/03/21 00:25:51;;;;;;;;;;;;;;;7.04;50.67;95021.69;4181937;28;20484;-70
2024/03/21 00:27:52;;;;;;;;;;;;;;;6.93;51.31;95019.97;4176523;28;20299;-70
2024/03/21 00:29:53;;;;;;;;;;;;;;;6.90;51.21;95014.19;4193296;28;19924;-71
2024/03/21 00:31:54;;;;;;;;;;;;;;;6.86;50.92;95011.03;4191248;28;19924;-71
2024/03/21 00:33:55;;;;;;;;;;;;;;;6.83;51.56;95013.88;4187583;28;19928;-71
2024/03/21 00:35:56;;;;;;;;;;;;;;;6.80;51.54;95011.56;4192955;28;20327;-70
2024/03/21 00:37:59;;;;;;;;;;;;;;;6.75;51.71;95013.69;4188111;28;19921;-70
2024/03/21 00:40:00;;;;;;;;;;;;;;;6.69;51.60;95011.59;4200918;28;19920;-72
2024/03/21 00:42:00;;;;;;;;;;;;;;;6.72;51.80;95003.56;4196720;28;19920;-73
2024/03/21 00:44:04;;;;;;;;;;;;;;;6.78;51.72;94999.63;4194077;28;19921;-72
2024/03/21 00:46:05;;;;;;;;;;;;;;;6.79;51.58;95002.06;4194402;28;19974;-70
2024/03/21 00:48:05;;;;;;;;;;;;;;;6.66;51.79;94998.84;4195065;28;20450;-72
2024/03/21 00:50:06;;;;;;;;;;;;;;;6.58;52.04;94999.47;4196428;28;19920;-70
2024/03/21 00:52:07;;;;;;;;;;;;;;;6.51;51.85;94999.16;4195446;28;20574;-70
2024/03/21 00:54:08;;;;;;;;;;;;;;;6.03;53.26;95004.84;4196027;28;20456;-71
2024/03/21 00:56:10;;;;;;;;;;;;;;;5.67;54.60;95003.38;4195136;28;20003;-72
2024/03/21 00:58:11;;;;;;;;;;;;;;;5.58;54.69;94994.53;4184370;28;20498;-71
2024/03/21 01:00:13;;;;;;;;;;;;;;;5.79;54.54;94988.59;4180277;28;20032;-72
2024/03/21 01:02:15;;;;;;;;;;;;;;;5.96;53.78;94990.69;4188428;28;19920;-72
2024/03/21 01:04:19;;;;;;;;;;;;;;;6.07;53.17;94987.22;4195316;28;19946;-70
2024/03/21 01:06:19;;;;;;;;;;;;;;;6.17;53.11;94989.88;4194620;28;19939;-71
2024/03/21 01:08:20;;;;;;;;;;;;;;;6.22;52.60;94991.16;4192509;28;19921;-71
2024/03/21 01:10:21;;;;;;;;;;;;;;;6.20;52.68;94990.47;4185903;28;19978;-70
2024/03/21 01:12:21;;;;;;;;;;;;;;;6.02;53.23;94991.94;4188887;28;19971;-71
2024/03/21 01:14:22;;;;;;;;;;;;;;;5.96;53.37;94982.88;4192701;28;19920;-71
2024/03/21 01:16:22;;;;;;;;;;;;;;;5.83;53.63;94987.34;4182369;28;19924;-71
2024/03/21 01:18:34;;;;;;;;;;;;;;;5.83;53.45;94982.16;4185733;28;19950;-71
2024/03/21 01:20:36;;;;;;;;;;;;;;;5.82;53.80;94978.75;4184078;28;19974;-71
2024/03/21 01:22:36;;;;;;;;;;;;;;;5.74;53.90;94984.56;4187499;28;19950;-73
2024/03/21 01:24:37;;;;;;;;;;;;;;;5.75;53.63;94988.00;4192821;28;19920;-72
2024/03/21 01:26:38;;;;;;;;;;;;;;;5.57;54.63;94989.44;4188312;28;19921;-72
2024/03/21 01:28:39;;;;;;;;;;;;;;;5.56;54.81;94988.63;4184513;28;20622;-71
2024/03/21 01:30:40;;;;;;;;;;;;;;;5.39;54.95;94994.31;4179558;28;19921;-72
2024/03/21 01:32:41;;;;;;;;;;;;;;;5.32;55.48;94987.00;4188899;28;19927;-71
2024/03/21 01:34:41;;;;;;;;;;;;;;;5.00;56.24;94988.69;4172274;28;20003;-71
2024/03/21 01:36:46;;;;;;;;;;;;;;;4.98;56.84;94985.38;4192567;28;20109;-70
2024/03/21 01:38:47;;;;;;;;;;;;;;;4.87;56.59;94994.81;4192133;28;19920;-70
2024/03/21 01:40:48;;;;;;;;;;;;;;;4.89;56.64;94987.72;4191193;28;20441;-69
2024/03/21 01:42:49;;;;;;;;;;;;;;;4.70;57.32;94995.25;4187396;28;19929;-70
2024/03/21 01:44:58;;;;;;;;;;;;;;;4.90;57.40;94994.59;4191986;28;19924;-71
2024/03/21 01:46:59;;;;;;;;;;;;;;;5.08;56.48;94981.13;4183297;28;19921;-71
2024/03/21 01:48:59;;;;;;;;;;;;;;;5.34;55.89;94979.09;4179602;28;19973;-70
2024/03/21 01:51:00;;;;;;;;;;;;;;;5.53;54.94;94981.91;4184351;28;20003;-70
2024/03/21 01:53:01;;;;;;;;;;;;;;;5.68;54.58;94979.03;4186520;28;19920;-70
2024/03/21 01:55:06;;;;;;;;;;;;;;;5.74;53.93;94979.38;4188438;28;20023;-69
2024/03/21 01:57:07;;;;;;;;;;;;;;;5.81;53.46;94977.09;4189659;28;19920;-71
2024/03/21 01:59:07;;;;;;;;;;;;;;;5.74;53.73;94973.31;4189602;28;20056;-71
2024/03/21 02:01:40;;;;;;;;;;;;;;;5.70;53.70;94974.50;4191116;28;19927;-70
2024/03/21 02:03:41;;;;;;;;;;;;;;;5.76;53.99;94976.63;4151445;28;19954;-70
2024/03/21 02:05:42;;;;;;;;;;;;;;;5.75;53.78;94969.78;4189224;28;20400;-71
2024/03/21 02:07:42;;;;;;;;;;;;;;;5.77;54.07;94977.47;4183931;28;19932;-70
2024/03/21 02:09:49;;;;;;;;;;;;;;;5.82;53.58;94970.13;4184218;28;19961;-69
2024/03/21 02:11:50;;;;;;;;;;;;;;;5.87;53.09;94971.41;4190921;28;19928;-71
2024/03/21 02:13:52;;;;;;;;;;;;;;;5.95;52.86;94970.81;4195144;28;19927;-71
2024/03/21 02:15:52;;;;;;;;;;;;;;;5.98;52.73;94967.13;4193447;28;19958;-69
2024/03/21 02:17:53;;;;;;;;;;;;;;;5.90;53.04;94962.53;4186408;28;19925;-70
2024/03/21 02:19:54;;;;;;;;;;;;;;;5.79;53.48;94966.00;4190786;28;20382;-70
2024/03/21 02:24:14;;;;;;;;;;;;;;;5.73;53.70;94962.09;4190794;28;19927;-70
2024/03/21 02:26:15;;;;;;;;;;;;;;;5.74;54.17;94955.97;4190126;28;19921;-71
2024/03/21 02:28:16;;;;;;;;;;;;;;;5.54;54.33;94967.13;4182854;28;19983;-70
2024/03/21 02:30:16;;;;;;;;;;;;;;;5.60;54.37;94965.81;4184768;28;19920;-71
2024/03/21 02:32:17;;;;;;;;;;;;;;;5.69;53.73;94965.91;4186986;28;19968;-70
2024/03/21 02:34:17;;;;;;;;;;;;;;;5.71;53.63;94964.00;4177293;28;19964;-72
2024/03/21 02:36:18;;;;;;;;;;;;;;;5.21;54.96;94965.44;4183905;28;19924;-71
2024/03/21 02:38:19;;;;;;;;;;;;;;;5.12;55.62;94967.78;4187921;28;19931;-71
2024/03/21 02:40:20;;;;;;;;;;;;;;;5.25;55.62;94966.84;4191952;28;20021;-69
2024/03/21 02:42:21;;;;;;;;;;;;;;;5.21;55.44;94966.25;4199997;28;20372;-70
2024/03/21 02:44:25;;;;;;;;;;;;;;;5.25;55.21;94956.44;4193770;28;19943;-73
2024/03/21 02:46:25;;;;;;;;;;;;;;;5.04;56.00;94958.94;4182129;28;19920;-68
2024/03/21 02:48:27;;;;;;;;;;;;;;;4.79;56.41;94960.00;4196690;28;19927;-69
2024/03/21 02:50:28;;;;;;;;;;;;;;;4.80;56.69;94959.06;4185823;28;19924;-69
2024/03/21 02:52:28;;;;;;;;;;;;;;;4.84;56.80;94957.84;4211383;28;20368;-70
2024/03/21 02:54:31;;;;;;;;;;;;;;;4.73;56.78;94961.28;4192799;28;19954;-70
2024/03/21 02:56:32;;;;;;;;;;;;;;;4.90;56.88;94959.97;4188966;28;19921;-69
2024/03/21 02:58:33;;;;;;;;;;;;;;;5.08;56.15;94955.16;4185665;28;19958;-70
2024/03/21 03:00:34;;;;;;;;;;;;;;;5.26;55.25;94953.72;4183290;28;19924;-70
2024/03/21 03:02:36;;;;;;;;;;;;;;;5.40;54.66;94952.63;4190137;28;19924;-70
2024/03/21 03:04:37;;;;;;;;;;;;;;;5.41;54.38;94958.66;4217563;28;19969;-70
2024/03/21 03:06:38;;;;;;;;;;;;;;;5.38;54.32;94951.09;4180431;28;19924;-71
2024/03/21 03:08:38;;;;;;;;;;;;;;;5.42;55.00;94961.13;4181229;28;19927;-71
2024/03/21 03:10:39;;;;;;;;;;;;;;;5.48;54.28;94955.44;4195409;28;20450;-71
2024/03/21 03:12:40;;;;;;;;;;;;;;;5.49;54.11;94956.28;4181477;28;20055;-70
2024/03/21 03:14:41;;;;;;;;;;;;;;;5.51;54.26;94949.19;4188431;28;19921;-69
2024/03/21 03:16:41;;;;;;;;;;;;;;;5.48;54.80;94959.81;4192716;28;20010;-72
2024/03/21 03:18:42;;;;;;;;;;;;;;;5.44;54.92;94954.06;4189964;28;19920;-71
2024/03/21 03:20:43;;;;;;;;;;;;;;;5.40;55.03;94954.38;4193613;28;19974;-68
2024/03/21 03:22:43;;;;;;;;;;;;;;;5.42;55.00;94955.94;4192619;28;20117;-71
2024/03/21 03:24:44;;;;;;;;;;;;;;;5.53;54.31;94962.88;4193696;28;19956;-72
2024/03/21 03:26:44;;;;;;;;;;;;;;;5.59;54.01;94956.34;4190038;28;19920;-69
2024/03/21 03:28:45;;;;;;;;;;;;;;;5.60;54.14;94961.44;4193312;28;20015;-70
2024/03/21 03:30:46;;;;;;;;;;;;;;;5.63;53.96;94963.78;4201118;28;20014;-71
2024/03/21 03:32:58;;;;;;;;;;;;;;;5.65;54.06;94961.88;4196513;28;19924;-69
2024/03/21 03:37:18;;;;;;;;;;;;;;;5.62;54.04;94964.75;4193024;28;19920;-71
2024/03/21 03:39:19;;;;;;;;;;;;;;;5.45;54.38;94965.25;4182132;28;20398;-71
2024/03/21 03:41:19;;;;;;;;;;;;;;;5.41;55.03;94969.88;4191471;28;20395;-71
2024/03/21 03:43:20;;;;;;;;;;;;;;;5.30;55.26;94970.72;4193273;28;20028;-70
2024/03/21 03:45:21;;;;;;;;;;;;;;;5.36;55.57;94971.19;4192658;28;19924;-70
2024/03/21 03:47:22;;;;;;;;;;;;;;;5.37;55.09;94976.25;4193325;28;19924;-69
2024/03/21 03:49:22;;;;;;;;;;;;;;;5.43;55.17;94980.16;4175097;28;19928;-69
2024/03/21 03:51:23;;;;;;;;;;;;;;;5.51;55.21;94977.78;4192699;28;19974;-71
2024/03/21 03:53:23;;;;;;;;;;;;;;;5.52;55.28;94975.03;4192684;28;19963;-70
2024/03/21 03:55:24;;;;;;;;;;;;;;;5.57;55.08;94979.03;4192220;28;19921;-70
2024/03/21 03:57:25;;;;;;;;;;;;;;;5.58;54.82;94981.53;4191314;28;20390;-71
2024/03/21 03:59:25;;;;;;;;;;;;;;;5.53;55.02;94979.28;4192897;28;19924;-71
2024/03/21 04:01:26;;;;;;;;;;;;;;;5.36;55.67;94979.81;4184878;28;19920;-68
2024/03/21 04:03:27;;;;;;;;;;;;;;;5.23;56.66;94982.53;4188346;28;20359;-70
2024/03/21 04:05:28;;;;;;;;;;;;;;;5.24;56.65;94981.56;4191914;28;19924;-73
2024/03/21 04:07:29;;;;;;;;;;;;;;;5.31;56.52;94987.97;4204558;28;20394;-71
2024/03/21 04:09:31;;;;;;;;;;;;;;;5.08;55.85;94991.53;4192237;28;20264;-68
2024/03/21 04:11:32;;;;;;;;;;;;;;;5.03;56.60;94991.03;4193622;28;19920;-71
2024/03/21 04:13:33;;;;;;;;;;;;;;;4.96;56.58;94982.06;4175542;28;19925;-70
2024/03/21 04:15:33;;;;;;;;;;;;;;;4.90;57.39;94994.59;4179855;28;19970;-71
2024/03/21 04:17:34;;;;;;;;;;;;;;;4.90;57.12;94994.59;4192858;28;19927;-71
2024/03/21 04:19:35;;;;;;;;;;;;;;;4.91;57.08;94996.22;4181824;28;19924;-70
2024/03/21 04:21:36;;;;;;;;;;;;;;;4.77;57.13;94998.22;4189709;28;19978;-70
2024/03/21 04:23:36;;;;;;;;;;;;;;;4.75;57.26;94994.91;4177266;28;19963;-71
2024/03/21 04:25:37;;;;;;;;;;;;;;;4.89;57.40;94999.88;4183944;28;20292;-71
2024/03/21 04:27:38;;;;;;;;;;;;;;;5.05;56.92;94995.16;4188790;28;20585;-70
2024/03/21 04:29:38;;;;;;;;;;;;;;;5.19;56.72;94994.09;4190983;28;19936;-72
2024/03/21 04:31:39;;;;;;;;;;;;;;;5.28;56.42;94988.19;4190010;28;19927;-70
2024/03/21 04:33:39;;;;;;;;;;;;;;;5.34;55.77;94992.09;4191849;28;20385;-72
2024/03/21 04:35:40;;;;;;;;;;;;;;;5.40;55.49;94995.97;4191444;28;19975;-69
2024/03/21 04:37:41;;;;;;;;;;;;;;;5.43;55.43;94991.34;4191742;28;20425;-70
2024/03/21 04:39:41;;;;;;;;;;;;;;;5.41;55.57;94988.06;4192327;28;20007;-70
2024/03/21 04:41:42;;;;;;;;;;;;;;;5.44;56.15;94992.19;4181989;28;19921;-70
2024/03/21 04:43:43;;;;;;;;;;;;;;;5.45;56.06;94993.84;4184095;28;19924;-70
2024/03/21 04:45:44;;;;;;;;;;;;;;;5.47;56.17;94990.16;4168808;28;19967;-71
2024/03/21 04:47:46;;;;;;;;;;;;;;;5.53;56.11;94991.47;4191737;28;19920;-70
2024/03/21 04:49:46;;;;;;;;;;;;;;;5.59;55.28;94993.56;4196649;28;19928;-70
2024/03/21 04:51:47;;;;;;;;;;;;;;;5.59;55.77;94990.97;4193959;28;20143;-69
2024/03/21 04:53:48;;;;;;;;;;;;;;;5.65;55.85;94992.25;4187700;28;20422;-68
2024/03/21 04:55:48;;;;;;;;;;;;;;;5.66;55.50;94991.34;4190809;28;19920;-71
2024/03/21 04:57:49;;;;;;;;;;;;;;;5.68;55.68;94989.44;4192515;28;19931;-71
2024/03/21 04:59:52;;;;;;;;;;;;;;;5.69;56.20;94985.88;4192792;28;19924;-70
2024/03/21 05:01:53;;;;;;;;;;;;;;;5.69;56.08;94986.69;4181704;28;19924;-71
2024/03/21 05:03:53;;;;;;;;;;;;;;;5.71;55.92;94997.78;4174056;28;19963;-73
2024/03/21 05:05:54;;;;;;;;;;;;;;;5.80;56.25;94990.22;4192979;28;20030;-72
2024/03/21 05:07:55;;;;;;;;;;;;;;;5.91;55.49;94984.97;4192742;28;19999;-71
2024/03/21 05:09:55;;;;;;;;;;;;;;;6.04;55.20;94992.66;4191887;28;20080;-71
2024/03/21 05:11:56;;;;;;;;;;;;;;;6.08;55.17;94991.44;4190883;28;20387;-72
2024/03/21 05:13:56;;;;;;;;;;;;;;;6.13;55.13;94992.75;4192327;28;19962;-71
2024/03/21 05:15:57;;;;;;;;;;;;;;;6.14;55.46;94988.34;4191993;28;20379;-70
2024/03/21 05:17:58;;;;;;;;;;;;;;;6.20;55.21;94989.66;4182520;28;19925;-71
2024/03/21 05:19:58;;;;;;;;;;;;;;;6.18;54.76;94983.75;4190176;28;19920;-72
2024/03/21 05:21:59;;;;;;;;;;;;;;;5.97;55.39;94984.50;4193482;28;20444;-73
2024/03/21 05:24:00;;;;;;;;;;;;;;;5.70;55.40;94990.09;4194282;28;19955;-70
2024/03/21 05:26:01;;;;;;;;;;;;;;;5.53;56.24;94991.47;4196030;28;20359;-71
2024/03/21 05:28:02;;;;;;;;;;;;;;;5.41;55.83;94993.25;4176238;28;19921;-71
2024/03/21 05:30:03;;;;;;;;;;;;;;;5.26;56.87;94990.06;4195306;28;20204;-74
2024/03/21 05:32:04;;;;;;;;;;;;;;;5.41;56.90;94987.22;4176115;28;19925;-72
2024/03/21 05:34:04;;;;;;;;;;;;;;;5.31;56.58;94993.16;4192357;28;20356;-72
2024/03/21 05:36:06;;;;;;;;;;;;;;;5.32;57.25;94986.19;4193657;28;20468;-72
2024/03/21 05:38:07;;;;;;;;;;;;;;;5.50;56.53;94992.53;4195601;28;19921;-70
2024/03/21 05:40:08;;;;;;;;;;;;;;;5.68;56.24;94985.06;4195222;28;20432;-70
2024/03/21 05:42:10;;;;;;;;;;;;;;;5.87;55.57;94983.56;4192522;28;20023;-70
2024/03/21 05:44:11;;;;;;;;;;;;;;;6.06;55.13;94980.34;4192574;28;19920;-71
2024/03/21 05:46:12;;;;;;;;;;;;;;;6.15;54.40;94984.78;4189948;28;19975;-72
2024/03/21 05:48:12;;;;;;;;;;;;;;;6.05;54.56;94987.31;4195201;28;19920;-72
2024/03/21 05:50:13;;;;;;;;;;;;;;;6.09;54.40;94975.72;4179020;28;19940;-70
2024/03/21 05:52:14;;;;;;;;;;;;;;;6.24;54.49;94978.00;4190116;28;19971;-70
2024/03/21 05:54:14;;;;;;;;;;;;;;;6.43;54.30;94980.78;4194072;28;19920;-71
2024/03/21 05:56:15;;;;;;;;;;;;;;;6.22;53.93;94978.16;4178736;28;19963;-72
2024/03/21 05:58:16;;;;;;;;;;;;;;;6.18;54.42;94976.75;4179960;28;20292;-71
2024/03/21 06:00:17;;;;;;;;;;;;;;;6.10;54.85;94984.34;4178598;28;19927;-72
2024/03/21 06:02:18;;;;;;;;;;;;;;;6.13;54.65;94979.72;4179193;28;19927;-72
2024/03/21 06:04:18;;;;;;;;;;;;;;;6.17;54.48;94980.28;4192849;28;20356;-72
2024/03/21 06:06:19;;;;;;;;;;;;;;;6.24;54.28;94984.06;4179877;28;20466;-71
2024/03/21 06:08:20;;;;;;;;;;;;;;;6.02;54.44;94979.75;4190892;28;19920;-73
2024/03/21 06:10:20;;;;;;;;;;;;;;;5.99;54.93;94987.81;4183439;28;19992;-71
2024/03/21 06:12:21;;;;;;;;;;;;;;;6.03;55.20;94981.41;4199373;28;19967;-72
2024/03/21 06:14:22;;;;;;;;;;;;;;;5.85;55.14;94980.25;4179301;28;19931;-72
2024/03/21 06:16:22;;;;;;;;;;;;;;;5.98;55.25;94985.34;4177945;28;20392;-72
2024/03/21 06:18:23;;;;;;;;;;;;;;;6.13;54.87;94978.88;4189503;28;20008;-72
2024/03/21 06:20:24;;;;;;;;;;;;;;;6.21;54.53;94986.06;4178760;28;19974;-72
2024/03/21 06:22:24;;;;;;;;;;;;;;;6.35;53.92;94984.00;4182011;28;19967;-73
2024/03/21 06:24:25;;;;;;;;;;;;;;;6.04;54.37;94984.84;4190025;28;19921;-70
2024/03/21 06:26:26;;;;;;;;;;;;;;;5.84;54.36;94984.66;4193217;28;19970;-72
2024/03/21 06:28:26;;;;;;;;;;;;;;;5.54;55.51;94991.34;4194117;28;19920;-72
2024/03/21 06:30:27;;;;;;;;;;;;;;;5.55;56.10;94984.38;4193025;28;20039;-72
2024/03/21 06:32:27;;;;;;;;;;;;;;;5.68;55.85;94976.44;4192568;28;19920;-70
2024/03/21 06:34:28;;;;;;;;;;;;;;;5.39;56.07;94989.13;4192697;28;19921;-71
2024/03/21 06:36:29;;;;;;;;;;;;;;;5.15;57.38;94991.88;4190659;28;20496;-71
2024/03/21 06:38:29;;;;;;;;;;;;;;;5.27;57.10;94983.09;4189261;28;20430;-70
2024/03/21 06:40:30;;;;;;;;;;;;;;;5.27;56.62;94983.09;4191505;28;19928;-73
2024/03/21 06:42:31;;;;;;;;;;;;;;;5.48;56.26;94991.81;4184468;28;19927;-69
2024/03/21 06:44:32;;;;;;;;;;;;;;;5.69;56.09;94978.91;4180855;28;19924;-70
2024/03/21 06:46:33;;;;;;;;;;;;;;;5.89;55.57;94982.53;4193169;28;20711;-73
2024/03/21 06:48:33;;;;;;;;;;;;;;;5.88;55.34;94980.03;4200209;28;20367;-71
2024/03/21 06:50:34;;;;;;;;;;;;;;;6.12;54.87;94987.66;4199629;28;19970;-72
2024/03/21 06:52:35;;;;;;;;;;;;;;;6.42;54.69;94979.09;4180567;28;19969;-72
2024/03/21 06:54:36;;;;;;;;;;;;;;;6.39;53.96;94979.38;4186746;28;19925;-71
2024/03/21 06:56:37;;;;;;;;;;;;;;;6.62;54.04;94979.22;4188235;28;19943;-72
2024/03/21 06:58:38;;;;;;;;;;;;;;;6.74;53.36;94988.63;4179255;28;20000;-71
2024/03/21 07:00:38;;;;;;;;;;;;;;;6.91;52.77;94977.63;4179751;28;19975;-70
2024/03/21 07:02:39;;;;;;;;;;;;;;;6.91;52.88;94976.78;4166285;28;20334;-72
2024/03/21 07:04:40;;;;;;;;;;;;;;;6.89;53.38;94974.31;4181135;28;19931;-71
2024/03/21 07:06:40;;;;;;;;;;;;;;;6.96;52.78;94970.22;4180963;28;19920;-73
2024/03/21 07:08:41;;;;;;;;;;;;;;;7.25;52.90;94972.13;4182133;28;19990;-74
2024/03/21 07:10:42;;;;;;;;;;;;;;;7.45;50.52;94973.00;4180109;28;19920;-72
2024/03/21 07:12:43;;;;;;;;;;;;;;;7.35;50.52;94967.75;4179146;28;19927;-72
2024/03/21 07:14:43;;;;;;;;;;;;;;;7.41;51.17;94963.81;4178648;28;20379;-71
2024/03/21 07:16:44;;;;;;;;;;;;;;;7.49;48.84;94958.75;4190991;28;20302;-71
2024/03/21 07:18:44;;;;;;;;;;;;;;;7.63;49.13;94967.16;4172338;28;19925;-74
2024/03/21 07:20:53;;;;;;;;;;;;;;;7.79;47.71;94957.84;4185686;28;20374;-70
2024/03/21 07:22:54;;;;;;;;;;;;;;;8.02;47.94;94965.41;4194442;28;19969;-73
2024/03/21 07:24:55;;;;;;;;;;;;;;;7.64;47.83;94961.00;4181639;28;19924;-72
2024/03/21 07:26:56;;;;;;;;;;;;;;;7.53;47.82;94961.94;4192228;28;19924;-72
2024/03/21 07:28:56;;;;;;;;;;;;;;;7.79;47.03;94965.69;4194689;28;19924;-71
2024/03/21 07:30:58;;;;;;;;;;;;;;;8.03;46.13;94961.84;4180514;28;20304;-71
2024/03/21 07:32:58;;;;;;;;;;;;;;;7.93;46.25;94961.00;4194057;28;19921;-73
2024/03/21 07:35:00;;;;;;;;;;;;;;;8.18;45.81;94950.03;4188357;28;20450;-73
2024/03/21 07:37:01;;;;;;;;;;;;;;;8.03;44.73;94958.44;4187325;28;20035;-74
2024/03/21 07:39:01;;;;;;;;;;;;;;;8.36;45.35;94951.94;4182173;28;19955;-70
2024/03/21 07:41:03;;;;;;;;;;;;;;;8.69;44.41;94942.84;4190326;28;19920;-70
2024/03/21 07:43:03;;;;;;;;;;;;;;;8.90;44.24;94950.47;4196257;28;19926;-69
2024/03/21 07:45:08;;;;;;;;;;;;;;;8.83;43.88;94959.84;4184346;28;19950;-71
2024/03/21 07:47:10;;;;;;;;;;;;;;;8.97;43.98;94951.56;4198445;28;19920;-71
2024/03/21 07:49:11;;;;;;;;;;;;;;;8.92;43.30;94955.56;4189695;28;19927;-71
2024/03/21 07:51:11;;;;;;;;;;;;;;;8.79;43.83;94963.72;4191950;28;19929;-71
2024/03/21 07:53:12;;;;;;;;;;;;;;;8.45;43.98;94958.97;4177416;28;19924;-71
2024/03/21 07:55:14;;;;;;;;;;;;;;;8.56;44.49;94950.16;4193151;28;19920;-73
2024/03/21 07:57:18;;;;;;;;;;;;;;;8.97;43.91;94958.56;4180956;28;19920;-72
2024/03/21 07:59:18;;;;;;;;;;;;;;;9.35;43.34;94954.97;4181399;28;19921;-72
2024/03/21 08:01:19;;;;;;;;;;;;;;;9.36;43.54;94948.78;4192319;28;19967;-71
2024/03/21 08:03:20;;;;;;;;;;;;;;;9.25;43.66;94959.44;4184247;28;19969;-72
2024/03/21 08:05:20;;;;;;;;;;;;;;;9.48;42.43;94951.19;4189923;28;20318;-73
2024/03/21 08:07:22;;;;;;;;;;;;;;;9.42;42.17;94940.38;4180361;28;20442;-71
2024/03/21 08:09:23;;;;;;;;;;;;;;;9.44;42.33;94955.88;4192352;28;19920;-72
2024/03/21 08:11:23;;;;;;;;;;;;;;;8.72;43.14;94954.81;4210556;28;20084;-72
2024/03/21 08:13:24;;;;;;;;;;;;;;;8.67;43.32;94949.16;4193875;28;19921;-71
2024/03/21 08:15:25;;;;;;;;;;;;;;;9.07;43.90;94941.06;4192063;28;19986;-70
2024/03/21 08:17:26;;;;;;;;;;;;;;;9.33;43.42;94940.41;4193552;28;19950;-73
2024/03/21 08:19:27;;;;;;;;;;;;;;;9.57;42.42;94934.63;4190860;28;19962;-71
2024/03/21 08:21:28;;;;;;;;;;;;;;;9.36;42.76;94935.72;4192968;28;19948;-73
2024/03/21 08:23:30;;;;;;;;;;;;;;;9.20;42.86;94938.13;4192480;28;20399;-73
2024/03/21 08:27:53;;;;;;;;;;;;;;;9.60;42.01;94932.53;4182165;28;20363;-71
2024/03/21 08:29:54;;;;;;;;;;;;;;;9.57;42.31;94934.63;4178818;28;19924;-71
2024/03/21 08:31:55;;;;;;;;;;;;;;;9.55;42.20;94933.94;4186165;28;19921;-71
2024/03/21 08:33:56;;;;;;;;;;;;;;;9.45;42.52;94935.81;4196358;28;20377;-72
2024/03/21 08:35:56;;;;;;;;;;;;;;;9.77;42.88;94923.06;4178460;28;19931;-71
2024/03/21 08:37:57;;;;;;;;;;;;;;;9.63;41.95;94928.81;4182567;28;19928;-71
2024/03/21 08:39:58;;;;;;;;;;;;;;;9.84;41.20;94931.97;4192729;28;19920;-71
2024/03/21 08:41:58;;;;;;;;;;;;;;;10.05;40.62;94923.81;4191427;28;20244;-72
2024/03/21 08:43:59;;;;;;;;;;;;;;;10.07;40.77;94925.44;4190795;28;19956;-71
2024/03/21 08:46:00;;;;;;;;;;;;;;;9.84;41.09;94931.16;4191284;28;19967;-72
2024/03/21 08:48:02;;;;;;;;;;;;;;;9.52;40.97;94937.69;4192223;28;20003;-72
2024/03/21 08:50:03;;;;;;;;;;;;;;;9.30;40.20;94925.84;4186709;28;19929;-72
2024/03/21 08:52:03;;;;;;;;;;;;;;;9.21;41.03;94926.72;4186039;28;20272;-71
2024/03/21 08:54:04;;;;;;;;;;;;;;;9.07;40.89;94922.78;4192614;28;19928;-71
2024/03/21 08:56:05;;;;;;;;;;;;;;;9.03;41.71;94918.78;4195715;28;19950;-73
2024/03/21 08:58:05;;;;;;;;;;;;;;;9.37;41.22;94915.63;4196764;28;19920;-72
2024/03/21 09:00:06;;;;;;;;;;;;;;;9.76;40.88;94905.72;4196199;28;20012;-70
2024/03/21 09:02:09;;;;;;;;;;;;;;;9.67;39.71;94911.03;4194487;28;19928;-71
2024/03/21 09:04:09;;;;;;;;;;;;;;;9.91;39.93;94899.97;4196673;28;19925;-72
2024/03/21 09:06:10;;;;;;;;;;;;;;;10.08;40.20;94904.38;4186731;28;20227;-76
2024/03/21 09:08:11;;;;;;;;;;;;;;;9.97;39.70;94894.16;4196231;28;19927;-70
2024/03/21 09:10:12;;;;;;;;;;;;;;;9.93;40.11;94898.84;4194524;28;19986;-73
2024/03/21 09:12:12;;;;;;;;;;;;;;;10.30;39.92;94890.00;4194841;28;20028;-72
2024/03/21 09:14:13;;;;;;;;;;;;;;;10.55;39.01;94882.34;4195642;28;19920;-71
2024/03/21 09:16:14;;;;;;;;;;;;;;;10.79;39.15;94889.50;4184758;28;20338;-73
2024/03/21 09:18:15;;;;;;;;;;;;;;;10.87;38.51;94889.56;4181640;28;20334;-73
2024/03/21 09:20:15;;;;;;;;;;;;;;;10.76;38.97;94888.03;4206469;28;19954;-73
2024/03/21 09:22:16;;;;;;;;;;;;;;;11.04;39.03;94875.53;4169239;28;19981;-72
2024/03/21 09:24:16;;;;;;;;;;;;;;;11.42;38.43;94885.66;4187488;28;19983;-70
2024/03/21 09:26:17;;;;;;;;;;;;;;;11.79;37.96;94884.47;4181111;28;20615;-71
2024/03/21 09:28:18;;;;;;;;;;;;;;;11.76;37.59;94885.59;4173225;28;19921;-73
2024/03/21 09:30:18;;;;;;;;;;;;;;;11.69;37.73;94881.97;4178608;28;20299;-71
2024/03/21 09:32:19;;;;;;;;;;;;;;;11.83;38.05;94878.72;4188202;28;19936;-72
2024/03/21 09:34:20;;;;;;;;;;;;;;;11.81;36.74;94877.25;4196270;28;19928;-74
2024/03/21 09:36:21;;;;;;;;;;;;;;;12.08;37.54;94873.50;4194526;28;19928;-73
2024/03/21 09:38:22;;;;;;;;;;;;;;;11.93;37.61;94867.28;4195815;28;19928;-71
2024/03/21 09:40:23;;;;;;;;;;;;;;;11.98;36.86;94872.84;4192697;28;20370;-70
2024/03/21 09:42:23;;;;;;;;;;;;;;;11.58;37.22;94871.78;4179666;28;20540;-72
2024/03/21 09:44:24;;;;;;;;;;;;;;;11.77;37.16;94858.38;4194670;28;19924;-73
2024/03/21 09:46:25;;;;;;;;;;;;;;;11.95;36.10;94857.44;4193761;28;19927;-75
2024/03/21 09:48:25;;;;;;;;;;;;;;;12.18;36.17;94863.66;4200580;28;20505;-72
2024/03/21 09:50:26;;;;;;;;;;;;;;;12.35;36.14;94861.03;4210180;28;20154;-72
2024/03/21 09:52:27;;;;;;;;;;;;;;;12.36;35.41;94855.59;4180524;28;20283;-71
2024/03/21 09:54:30;;;;;;;;;;;;;;;12.60;35.38;94854.72;4194726;28;20399;-72
2024/03/21 09:56:30;;;;;;;;;;;;;;;12.71;35.06;94843.03;4206061;28;19928;-72
2024/03/21 09:58:31;;;;;;;;;;;;;;;12.96;35.23;94838.53;4188967;28;20347;-71
2024/03/21 10:00:32;;;;;;;;;;;;;;;12.72;35.15;94836.00;4192655;28;20322;-74
2024/03/21 10:02:32;;;;;;;;;;;;;;;12.48;35.45;94832.44;4193856;28;19920;-74
2024/03/21 10:04:49;;;;;;;;;;;;;;;12.83;34.51;94823.31;4178537;28;19920;-73
2024/03/21 10:06:50;;;;;;;;;;;;;;;13.13;33.76;94817.44;4176764;28;19924;-73
2024/03/21 10:08:51;;;;;;;;;;;;;;;13.33;32.74;94826.56;4194390;28;20333;-73
2024/03/21 10:10:52;;;;;;;;;;;;;;;13.56;33.11;94820.53;4194130;28;19975;-72
2024/03/21 10:12:53;;;;;;;;;;;;;;;13.71;32.18;94810.88;4195474;28;19921;-72
2024/03/21 10:14:56;;;;;;;;;;;;;;;13.42;32.00;94814.19;4194528;28;19921;-71
2024/03/21 10:16:57;;;;;;;;;;;;;;;13.45;31.83;94814.66;4193311;28;19929;-72
2024/03/21 10:19:00;;;;;;;;;;;;;;;13.13;31.51;94814.81;4179127;28;19971;-73
2024/03/21 10:21:02;;;;;;;;;;;;;;;13.00;31.45;94804.84;4192003;28;19920;-73
2024/03/21 10:23:03;;;;;;;;;;;;;;;13.11;32.27;94801.81;4194918;28;19921;-68
2024/03/21 10:25:06;;;;;;;;;;;;;;;13.19;31.85;94793.09;4178774;28;19952;-73
2024/03/21 10:27:07;;;;;;;;;;;;;;;13.37;31.63;94785.75;4191941;28;19920;-72
2024/03/21 10:29:09;;;;;;;;;;;;;;;13.25;31.55;94798.47;4194515;28;20449;-75
2024/03/21 10:31:11;;;;;;;;;;;;;;;12.32;29.51;94820.13;4190901;28;19966;-73
2024/03/21 10:33:21;;;;;;;;;;;;;;;12.17;31.04;94803.41;4166554;28;19927;-72
2024/03/21 10:35:22;;;;;;;;;;;;;;;12.18;31.21;94798.00;4170830;28;19924;-73
2024/03/21 10:37:23;;;;;;;;;;;;;;;11.94;31.55;94790.97;4204144;28;19920;-71
2024/03/21 10:39:24;;;;;;;;;;;;;;;12.04;31.60;94804.75;4207293;28;19925;-72
2024/03/21 10:41:25;;;;;;;;;;;;;;;11.97;31.01;94795.06;4187421;28;21298;-72
2024/03/21 10:43:26;;;;;;;;;;;;;;;12.33;31.89;94776.31;4193797;28;19982;-72
2024/03/21 10:45:27;;;;;;;;;;;;;;;12.80;30.40;94780.75;4176943;28;19921;-73